Time;durP1;ratioP1;P1;durP2;ratioP2;P2;SDS_P1;SDS_P2;PMS_P1;PMS_P2;Temp;Humidity;BMP_temperature;BMP_pressure;BME280_temperature;BME280_humidity;BME280_pressure;Samples;Min_cycle;Max_cycle;Signal;HPM_P1;HPM_P2
2021/12/18 00:01:36;;;;;;;9.23;3.92;;;;;;;;;;5074246;28;20039;-63
2021/12/18 00:04:02;;;;;;;7.35;4.00;;;;;;;;;;5074164;28;20046;-63
2021/12/18 00:06:28;;;;;;;7.72;3.60;;;;;;;;;;5074106;28;20149;-62
2021/12/18 00:08:54;;;;;;;5.70;3.58;;;;;;;;;;5074051;28;20131;-64
2021/12/18 00:11:20;;;;;;;7.95;4.28;;;;;;;;;;5073593;28;20423;-64
2021/12/18 00:13:46;;;;;;;9.00;3.97;;;;;;;;;;5072792;28;20127;-64
2021/12/18 00:16:28;;;;;;;7.30;3.42;;;;;;;;;;5073836;28;20038;-66
2021/12/18 00:18:56;;;;;;;6.90;3.78;;;;;;;;;;5055933;28;20443;-63
2021/12/18 00:21:22;;;;;;;7.45;4.38;;;;;;;;;;5072438;28;20463;-63
2021/12/18 00:23:48;;;;;;;13.85;7.00;;;;;;;;;;5073858;28;20097;-63
2021/12/18 00:26:13;;;;;;;8.50;4.18;;;;;;;;;;5073726;28;20484;-63
2021/12/18 00:28:39;;;;;;;6.10;3.72;;;;;;;;;;5073546;28;20375;-63
2021/12/18 00:31:04;;;;;;;10.75;4.75;;;;;;;;;;5073670;28;20475;-63
2021/12/18 00:33:31;;;;;;;9.82;4.93;;;;;;;;;;5073668;28;20029;-63
2021/12/18 00:35:56;;;;;;;5.97;4.05;;;;;;;;;;5073544;28;20043;-63
2021/12/18 00:38:40;;;;;;;10.75;5.45;;;;;;;;;;5072477;28;20048;-65
2021/12/18 00:43:35;;;;;;;11.07;5.40;;;;;;;;;;5073573;28;20021;-63
2021/12/18 00:46:01;;;;;;;7.53;4.30;;;;;;;;;;5073530;28;20028;-63
2021/12/18 00:48:27;;;;;;;11.20;4.47;;;;;;;;;;5073397;28;20486;-64
2021/12/18 00:50:52;;;;;;;10.65;4.03;;;;;;;;;;5073347;28;20033;-64
2021/12/18 00:53:18;;;;;;;8.32;4.03;;;;;;;;;;5072244;28;20028;-63
2021/12/18 00:55:44;;;;;;;6.75;3.90;;;;;;;;;;5073374;28;20043;-64
2021/12/18 00:58:09;;;;;;;7.72;3.75;;;;;;;;;;5073064;28;20016;-63
2021/12/18 01:00:35;;;;;;;5.32;3.58;;;;;;;;;;5072840;28;20028;-63
2021/12/18 01:03:02;;;;;;;8.63;4.00;;;;;;;;;;5072986;28;20493;-63
2021/12/18 01:05:30;;;;;;;7.15;3.92;;;;;;;;;;5073146;28;20041;-63
2021/12/18 01:07:57;;;;;;;6.85;3.97;;;;;;;;;;5073299;28;20040;-63
2021/12/18 01:12:57;;;;;;;8.27;3.90;;;;;;;;;;5073176;28;20553;-64
2021/12/18 01:15:30;;;;;;;5.57;3.85;;;;;;;;;;5073200;28;20032;-61
2021/12/18 01:23:25;;;;;;;6.88;3.92;;;;;;;;;;5073113;28;20478;-61
2021/12/18 01:25:51;;;;;;;8.20;4.15;;;;;;;;;;5072990;28;20435;-61
2021/12/18 01:28:17;;;;;;;8.27;3.83;;;;;;;;;;5071613;28;20089;-61
2021/12/18 01:30:42;;;;;;;8.25;4.32;;;;;;;;;;5071865;28;20033;-61
2021/12/18 01:33:08;;;;;;;11.25;4.50;;;;;;;;;;5071802;28;20091;-64
2021/12/18 01:35:33;;;;;;;9.50;4.68;;;;;;;;;;5072828;28;20021;-64
2021/12/18 01:37:59;;;;;;;8.00;4.40;;;;;;;;;;5072940;28;20037;-63
2021/12/18 01:40:25;;;;;;;8.95;4.28;;;;;;;;;;5072731;28;20108;-63
2021/12/18 01:53:45;;;;;;;10.07;4.20;;;;;;;;;;5073323;28;20124;-61
2021/12/18 01:56:10;;;;;;;8.85;4.75;;;;;;;;;;5072868;28;20356;-61
2021/12/18 01:58:36;;;;;;;7.38;4.10;;;;;;;;;;5072286;28;20082;-61
2021/12/18 02:01:03;;;;;;;7.15;3.83;;;;;;;;;;5071315;28;20052;-61
2021/12/18 02:03:29;;;;;;;7.15;3.67;;;;;;;;;;5054746;28;20398;-61
2021/12/18 02:05:55;;;;;;;8.50;4.15;;;;;;;;;;5072680;28;20021;-61
2021/12/18 02:08:22;;;;;;;9.70;4.40;;;;;;;;;;5072804;28;20511;-61
2021/12/18 02:10:54;;;;;;;6.90;3.75;;;;;;;;;;5076213;28;20037;-61
2021/12/18 02:21:27;;;;;;;7.30;3.78;;;;;;;;;;5074733;28;20041;-61
2021/12/18 02:23:52;;;;;;;9.05;4.03;;;;;;;;;;5058058;28;20036;-61
2021/12/18 02:26:23;;;;;;;7.47;3.88;;;;;;;;;;5075905;28;20131;-61
2021/12/18 02:28:51;;;;;;;7.72;4.22;;;;;;;;;;5057702;28;20082;-61
2021/12/18 02:31:17;;;;;;;7.05;4.10;;;;;;;;;;5076031;28;20045;-61
2021/12/18 02:33:43;;;;;;;6.72;3.65;;;;;;;;;;5075943;28;20043;-61
2021/12/18 02:36:11;;;;;;;5.13;3.92;;;;;;;;;;5075989;28;20585;-61
2021/12/18 02:43:50;;;;;;;7.28;3.88;;;;;;;;;;5075681;28;20162;-61
2021/12/18 02:46:19;;;;;;;6.18;4.13;;;;;;;;;;5075607;28;20039;-61
2021/12/18 02:48:46;;;;;;;7.20;4.32;;;;;;;;;;5075628;28;20033;-61
2021/12/18 02:51:12;;;;;;;7.10;4.03;;;;;;;;;;5075282;28;20039;-61
2021/12/18 02:53:40;;;;;;;8.85;4.35;;;;;;;;;;5075546;28;20434;-61
2021/12/18 02:56:06;;;;;;;10.50;5.13;;;;;;;;;;5074099;28;20377;-61
2021/12/18 02:58:36;;;;;;;10.40;4.32;;;;;;;;;;5074098;28;20044;-61
2021/12/18 03:01:02;;;;;;;7.53;4.05;;;;;;;;;;5075429;28;20025;-61
2021/12/18 03:03:31;;;;;;;6.95;4.78;;;;;;;;;;5075194;28;20036;-61
2021/12/18 03:06:09;;;;;;;7.10;4.05;;;;;;;;;;5074168;28;20025;-61
2021/12/18 03:24:33;;;;;;;7.40;3.75;;;;;;;;;;5073673;28;20044;-61
2021/12/18 03:26:59;;;;;;;5.88;3.45;;;;;;;;;;5074507;28;20036;-61
2021/12/18 03:29:25;;;;;;;7.47;3.70;;;;;;;;;;5074953;28;20094;-61
2021/12/18 03:31:50;;;;;;;7.82;4.28;;;;;;;;;;5074670;28;20041;-61
2021/12/18 03:34:15;;;;;;;7.60;4.10;;;;;;;;;;5074662;28;20024;-61
2021/12/18 03:36:41;;;;;;;5.65;3.72;;;;;;;;;;5074638;28;20040;-61
2021/12/18 03:39:06;;;;;;;7.75;3.70;;;;;;;;;;5073382;28;20082;-61
2021/12/18 03:41:32;;;;;;;6.28;3.90;;;;;;;;;;5074648;28;20036;-61
2021/12/18 03:43:57;;;;;;;8.45;4.18;;;;;;;;;;5073247;28;20040;-61
2021/12/18 03:46:23;;;;;;;5.97;3.45;;;;;;;;;;5074425;28;20123;-61
2021/12/18 03:48:48;;;;;;;7.68;3.72;;;;;;;;;;5074427;28;20123;-61
2021/12/18 03:51:13;;;;;;;5.85;3.92;;;;;;;;;;5074197;28;20116;-61
2021/12/18 03:53:39;;;;;;;8.25;3.67;;;;;;;;;;5074164;28;20403;-61
2021/12/18 03:56:05;;;;;;;6.50;3.70;;;;;;;;;;5074223;28;20459;-61
2021/12/18 03:58:30;;;;;;;8.50;3.90;;;;;;;;;;5074190;28;20028;-61
2021/12/18 04:00:55;;;;;;;7.32;4.05;;;;;;;;;;5074105;28;20414;-60
2021/12/18 04:03:21;;;;;;;7.30;3.50;;;;;;;;;;5072935;28;20038;-61
2021/12/18 04:05:46;;;;;;;6.85;3.47;;;;;;;;;;5074062;28;20086;-61
2021/12/18 04:08:12;;;;;;;8.52;3.67;;;;;;;;;;5074019;28;20105;-61
2021/12/18 04:10:38;;;;;;;5.43;3.38;;;;;;;;;;5074049;28;20040;-61
2021/12/18 04:13:04;;;;;;;6.45;3.42;;;;;;;;;;5073905;28;20036;-61
2021/12/18 04:15:29;;;;;;;7.10;4.07;;;;;;;;;;5073901;28;20037;-61
2021/12/18 04:17:55;;;;;;;9.05;4.45;;;;;;;;;;5073909;28;20028;-61
2021/12/18 04:20:20;;;;;;;8.52;4.35;;;;;;;;;;5055955;28;20040;-61
2021/12/18 04:22:45;;;;;;;5.80;4.00;;;;;;;;;;5072546;28;20454;-61
2021/12/18 04:25:11;;;;;;;5.90;4.00;;;;;;;;;;5073823;28;20044;-61
2021/12/18 04:27:36;;;;;;;7.97;4.35;;;;;;;;;;5073583;28;20044;-61
2021/12/18 04:30:02;;;;;;;6.70;3.80;;;;;;;;;;5073696;28;20036;-61
2021/12/18 04:32:27;;;;;;;5.18;3.70;;;;;;;;;;5054811;28;20483;-61
2021/12/18 04:34:52;;;;;;;9.02;4.30;;;;;;;;;;5073550;28;20418;-61
2021/12/18 04:37:19;;;;;;;6.80;4.10;;;;;;;;;;5073586;28;20532;-61
2021/12/18 04:39:44;;;;;;;7.93;4.03;;;;;;;;;;5073547;28;20043;-61
2021/12/18 04:42:10;;;;;;;6.78;4.00;;;;;;;;;;5073329;28;20024;-61
2021/12/18 04:44:35;;;;;;;8.63;4.20;;;;;;;;;;5073544;28;20041;-61
2021/12/18 04:47:00;;;;;;;7.97;3.60;;;;;;;;;;5073469;28;20020;-61
2021/12/18 04:49:26;;;;;;;5.10;3.60;;;;;;;;;;5073305;28;20399;-61
2021/12/18 04:51:51;;;;;;;6.72;3.80;;;;;;;;;;5073335;28;20029;-61
2021/12/18 04:54:16;;;;;;;7.57;4.03;;;;;;;;;;5055321;28;20051;-61
2021/12/18 04:56:42;;;;;;;7.97;4.60;;;;;;;;;;5073355;28;20032;-61
2021/12/18 04:59:07;;;;;;;8.20;4.18;;;;;;;;;;5073210;28;20425;-61
2021/12/18 05:01:38;;;;;;;7.05;4.10;;;;;;;;;;5073265;28;20082;-61
2021/12/18 05:04:06;;;;;;;8.02;4.00;;;;;;;;;;5073256;28;20113;-61
2021/12/18 05:06:33;;;;;;;5.50;3.60;;;;;;;;;;5073265;28;20032;-61
2021/12/18 05:08:58;;;;;;;6.40;4.22;;;;;;;;;;5073081;28;20033;-61
2021/12/18 05:11:24;;;;;;;7.30;4.25;;;;;;;;;;5073228;28;20025;-61
2021/12/18 05:13:49;;;;;;;5.38;4.13;;;;;;;;;;5072023;28;20051;-61
2021/12/18 05:16:14;;;;;;;6.60;4.05;;;;;;;;;;5071949;28;20028;-61
2021/12/18 05:18:40;;;;;;;8.35;3.80;;;;;;;;;;5073066;28;20025;-61
2021/12/18 05:21:05;;;;;;;8.57;4.13;;;;;;;;;;5072975;28;20389;-61
2021/12/18 05:23:31;;;;;;;5.15;3.65;;;;;;;;;;5072925;28;20028;-61
2021/12/18 05:25:57;;;;;;;6.50;3.70;;;;;;;;;;5071912;28;20029;-61
2021/12/18 05:28:23;;;;;;;6.35;3.55;;;;;;;;;;5072625;28;20127;-61
2021/12/18 05:30:49;;;;;;;7.35;3.65;;;;;;;;;;5071798;28;20127;-61
2021/12/18 05:33:14;;;;;;;5.32;3.92;;;;;;;;;;5072849;28;20132;-61
2021/12/18 05:35:40;;;;;;;4.15;3.35;;;;;;;;;;5072667;28;20020;-61
2021/12/18 05:38:05;;;;;;;6.45;3.70;;;;;;;;;;5072908;28;20052;-61
2021/12/18 05:40:31;;;;;;;7.20;3.63;;;;;;;;;;5072722;28;20498;-61
2021/12/18 05:42:57;;;;;;;6.55;3.63;;;;;;;;;;5073573;28;20036;-61
2021/12/18 05:45:23;;;;;;;6.18;3.63;;;;;;;;;;5075689;28;20059;-61
2021/12/18 05:47:49;;;;;;;5.88;3.60;;;;;;;;;;5076724;28;20044;-61
2021/12/18 05:50:17;;;;;;;7.10;3.45;;;;;;;;;;5076764;28;20036;-60
2021/12/18 05:52:44;;;;;;;5.10;3.17;;;;;;;;;;5076531;28;20048;-61
2021/12/18 05:55:10;;;;;;;5.95;3.42;;;;;;;;;;5076652;28;20025;-60
2021/12/18 05:57:35;;;;;;;5.50;3.70;;;;;;;;;;5076481;28;20037;-61
2021/12/18 06:00:01;;;;;;;6.47;3.33;;;;;;;;;;5076455;28;20517;-61
2021/12/18 06:02:29;;;;;;;6.78;3.55;;;;;;;;;;5076583;28;20376;-61
2021/12/18 06:04:54;;;;;;;8.13;3.67;;;;;;;;;;5076461;28;20115;-61
2021/12/18 06:07:31;;;;;;;5.97;3.67;;;;;;;;;;5075155;28;20052;-61
2021/12/18 06:09:58;;;;;;;5.60;3.72;;;;;;;;;;5075287;28;20045;-61
2021/12/18 06:12:24;;;;;;;7.50;3.85;;;;;;;;;;5076128;28;20056;-61
2021/12/18 06:14:49;;;;;;;7.85;3.47;;;;;;;;;;5076247;28;20068;-60
2021/12/18 06:17:15;;;;;;;6.00;3.65;;;;;;;;;;5076270;28;20032;-61
2021/12/18 06:19:40;;;;;;;5.78;3.65;;;;;;;;;;5076178;28;20097;-61
2021/12/18 06:22:05;;;;;;;6.15;3.47;;;;;;;;;;5076036;28;20050;-60
2021/12/18 06:24:31;;;;;;;6.38;3.70;;;;;;;;;;5075914;28;20037;-61
2021/12/18 06:26:56;;;;;;;9.60;4.18;;;;;;;;;;5075794;28;20041;-60
2021/12/18 06:29:22;;;;;;;5.55;3.75;;;;;;;;;;5076217;28;20437;-61
2021/12/18 06:31:48;;;;;;;5.68;4.00;;;;;;;;;;5075400;28;20040;-61
2021/12/18 06:34:14;;;;;;;6.43;3.67;;;;;;;;;;5075853;28;20497;-60
2021/12/18 06:36:39;;;;;;;5.90;3.92;;;;;;;;;;5074688;28;20383;-61
2021/12/18 06:39:05;;;;;;;6.47;3.97;;;;;;;;;;5075821;28;20079;-61
2021/12/18 06:41:30;;;;;;;7.75;4.10;;;;;;;;;;5075692;28;20067;-60
2021/12/18 06:43:56;;;;;;;5.80;3.80;;;;;;;;;;5074505;28;20119;-60
2021/12/18 06:46:21;;;;;;;7.53;4.60;;;;;;;;;;5074317;28;20462;-61
2021/12/18 06:48:47;;;;;;;10.32;6.07;;;;;;;;;;5075537;28;20040;-61
2021/12/18 06:51:12;;;;;;;45.03;19.73;;;;;;;;;;5075587;28;20470;-61
2021/12/18 06:53:37;;;;;;;16.13;8.25;;;;;;;;;;5075547;28;20115;-60
2021/12/18 06:56:06;;;;;;;14.75;5.32;;;;;;;;;;5074567;28;20463;-60
2021/12/18 06:58:31;;;;;;;7.60;3.83;;;;;;;;;;5074182;28;20131;-60
2021/12/18 07:00:57;;;;;;;9.40;4.38;;;;;;;;;;5075388;28;20111;-61
2021/12/18 07:03:22;;;;;;;6.13;4.05;;;;;;;;;;5075314;28;20089;-61
2021/12/18 07:05:48;;;;;;;7.00;4.20;;;;;;;;;;5075198;28;20039;-61
2021/12/18 07:08:14;;;;;;;5.93;4.22;;;;;;;;;;5075102;28;20047;-61
2021/12/18 07:10:39;;;;;;;5.85;3.97;;;;;;;;;;5075154;28;20033;-61
2021/12/18 07:13:05;;;;;;;8.20;4.72;;;;;;;;;;5073841;28;20040;-61
2021/12/18 07:15:30;;;;;;;9.32;4.60;;;;;;;;;;5075041;28;20078;-61
2021/12/18 07:17:56;;;;;;;7.07;4.05;;;;;;;;;;5074883;28;20072;-61
2021/12/18 07:20:21;;;;;;;6.38;3.80;;;;;;;;;;5073751;28;20029;-61
2021/12/18 07:22:46;;;;;;;7.32;4.38;;;;;;;;;;5075071;28;20048;-61
2021/12/18 07:25:12;;;;;;;5.53;4.10;;;;;;;;;;5073642;28;20040;-61
2021/12/18 07:27:37;;;;;;;5.82;4.25;;;;;;;;;;5074438;28;20091;-61
2021/12/18 07:30:04;;;;;;;6.45;4.03;;;;;;;;;;5073658;28;20048;-61
2021/12/18 07:32:29;;;;;;;6.00;4.10;;;;;;;;;;5074726;28;20131;-61
2021/12/18 07:34:55;;;;;;;10.57;5.20;;;;;;;;;;5074807;28;20060;-61
2021/12/18 07:37:22;;;;;;;7.53;4.55;;;;;;;;;;5074643;28;20545;-61
2021/12/18 07:39:48;;;;;;;8.13;4.97;;;;;;;;;;5074532;28;20064;-61
2021/12/18 07:42:13;;;;;;;7.90;5.20;;;;;;;;;;5074450;28;20060;-61
2021/12/18 07:44:40;;;;;;;9.55;5.30;;;;;;;;;;5073281;28;20064;-61
2021/12/18 07:47:06;;;;;;;10.50;5.43;;;;;;;;;;5074322;28;20410;-61
2021/12/18 07:49:31;;;;;;;8.40;4.80;;;;;;;;;;5074393;28;20032;-61
2021/12/18 07:52:01;;;;;;;8.10;4.72;;;;;;;;;;5072865;28;20041;-61
2021/12/18 07:54:27;;;;;;;7.88;5.03;;;;;;;;;;5074325;28;20368;-61
2021/12/18 07:56:53;;;;;;;9.57;4.53;;;;;;;;;;5074127;28;20032;-61
2021/12/18 07:59:19;;;;;;;9.00;4.57;;;;;;;;;;5074084;28;20028;-61
2021/12/18 08:01:44;;;;;;;10.13;4.95;;;;;;;;;;5073016;28;20050;-61
2021/12/18 08:04:10;;;;;;;6.57;4.65;;;;;;;;;;5074116;28;20419;-61
2021/12/18 08:06:35;;;;;;;10.43;5.07;;;;;;;;;;5074012;28;20032;-61
2021/12/18 08:09:00;;;;;;;12.68;6.25;;;;;;;;;;5073947;28;20490;-61
2021/12/18 08:11:26;;;;;;;10.25;5.53;;;;;;;;;;5072688;28;20425;-61
2021/12/18 08:13:51;;;;;;;7.00;4.47;;;;;;;;;;5073897;28;20134;-61
2021/12/18 08:16:17;;;;;;;11.23;5.78;;;;;;;;;;5073832;28;20025;-61
2021/12/18 08:18:42;;;;;;;8.75;5.18;;;;;;;;;;5072539;28;20120;-61
2021/12/18 08:21:07;;;;;;;9.77;5.25;;;;;;;;;;5073434;28;20115;-61
2021/12/18 08:23:33;;;;;;;7.25;4.80;;;;;;;;;;5073683;28;20079;-61
2021/12/18 08:25:58;;;;;;;11.10;5.13;;;;;;;;;;5073861;28;20056;-61
2021/12/18 08:28:24;;;;;;;8.57;5.20;;;;;;;;;;5072260;28;20194;-61
2021/12/18 08:30:49;;;;;;;10.32;5.07;;;;;;;;;;5055838;28;20127;-61
2021/12/18 08:33:14;;;;;;;10.82;4.82;;;;;;;;;;5073479;28;20137;-61
2021/12/18 08:35:40;;;;;;;10.18;5.10;;;;;;;;;;5073767;28;20032;-61
2021/12/18 08:38:05;;;;;;;7.43;4.90;;;;;;;;;;5073575;28;20060;-61
2021/12/18 08:40:31;;;;;;;11.45;4.60;;;;;;;;;;5073368;28;20107;-60
2021/12/18 08:42:57;;;;;;;8.80;5.10;;;;;;;;;;5073341;28;20033;-61
2021/12/18 08:45:23;;;;;;;10.30;4.78;;;;;;;;;;5072167;28;20036;-61
2021/12/18 08:47:48;;;;;;;7.35;4.65;;;;;;;;;;5055527;28;20036;-61
2021/12/18 08:50:17;;;;;;;12.52;6.22;;;;;;;;;;5073441;28;20028;-60
2021/12/18 08:52:43;;;;;;;7.22;4.07;;;;;;;;;;5073237;28;20067;-60
2021/12/18 08:55:10;;;;;;;7.50;4.00;;;;;;;;;;5073366;28;20364;-61
2021/12/18 08:57:35;;;;;;;7.45;3.72;;;;;;;;;;5055375;28;20051;-61
2021/12/18 09:00:01;;;;;;;9.73;4.63;;;;;;;;;;5072127;28;20410;-61
2021/12/18 09:02:27;;;;;;;10.05;5.07;;;;;;;;;;5073314;28;20119;-61
2021/12/18 09:04:52;;;;;;;9.90;4.45;;;;;;;;;;5073367;28;20513;-61
2021/12/18 09:07:18;;;;;;;8.80;4.85;;;;;;;;;;5073119;28;20387;-61
2021/12/18 09:09:43;;;;;;;9.15;4.65;;;;;;;;;;5055228;28;20025;-61
2021/12/18 09:12:09;;;;;;;10.13;5.03;;;;;;;;;;5073057;28;20040;-61
2021/12/18 09:14:35;;;;;;;9.52;4.47;;;;;;;;;;5071713;28;20433;-61
2021/12/18 09:17:00;;;;;;;5.97;3.72;;;;;;;;;;5073070;28;20139;-60
2021/12/18 09:19:26;;;;;;;5.70;4.30;;;;;;;;;;5079290;28;20153;-60
2021/12/18 09:21:51;;;;;;;6.45;4.60;;;;;;;;;;5079734;28;20395;-60
2021/12/18 09:24:16;;;;;;;6.40;4.28;;;;;;;;;;5078360;28;20364;-60
2021/12/18 09:26:42;;;;;;;10.25;4.90;;;;;;;;;;5079543;28;20036;-61
2021/12/18 09:29:07;;;;;;;8.32;4.97;;;;;;;;;;5078536;28;20033;-60
2021/12/18 09:31:33;;;;;;;8.60;4.82;;;;;;;;;;5078302;28;20162;-60
2021/12/18 09:33:58;;;;;;;7.32;4.53;;;;;;;;;;5079748;28;20020;-61
2021/12/18 09:36:24;;;;;;;6.47;3.42;;;;;;;;;;5079687;28;20612;-60
2021/12/18 09:38:49;;;;;;;8.15;4.13;;;;;;;;;;5079726;28;20024;-60
2021/12/18 09:41:15;;;;;;;7.20;4.40;;;;;;;;;;5079466;28;20033;-60
2021/12/18 09:43:40;;;;;;;7.18;4.30;;;;;;;;;;5079577;28;20024;-60
2021/12/18 09:46:07;;;;;;;10.00;5.53;;;;;;;;;;5078114;28;20036;-60
2021/12/18 09:48:33;;;;;;;10.60;5.07;;;;;;;;;;5079442;28;20074;-60
2021/12/18 09:51:01;;;;;;;6.50;4.22;;;;;;;;;;5079562;28;20032;-60
2021/12/18 09:53:27;;;;;;;8.43;4.63;;;;;;;;;;5079456;28;20070;-60
2021/12/18 09:55:52;;;;;;;7.88;4.53;;;;;;;;;;5061661;28;20068;-60
2021/12/18 09:58:17;;;;;;;7.03;4.95;;;;;;;;;;5079491;28;20028;-60
2021/12/18 10:00:43;;;;;;;7.72;4.63;;;;;;;;;;5079249;28;20048;-60
2021/12/18 10:03:08;;;;;;;9.80;5.45;;;;;;;;;;5079193;28;20033;-61
2021/12/18 10:05:35;;;;;;;9.55;5.38;;;;;;;;;;5079216;28;20414;-61
2021/12/18 10:08:06;;;;;;;15.02;6.55;;;;;;;;;;5078964;28;20389;-61
2021/12/18 10:10:33;;;;;;;9.45;4.38;;;;;;;;;;5079709;28;20041;-61
2021/12/18 10:13:03;;;;;;;9.07;5.47;;;;;;;;;;5078013;28;20040;-61
2021/12/18 10:15:28;;;;;;;10.95;5.80;;;;;;;;;;5079312;28;20033;-61
2021/12/18 10:18:03;;;;;;;9.80;5.80;;;;;;;;;;5079125;28;20385;-61
2021/12/18 10:20:28;;;;;;;9.98;5.18;;;;;;;;;;5078043;28;20051;-61
2021/12/18 10:22:56;;;;;;;11.27;6.00;;;;;;;;;;5079103;28;20032;-61
2021/12/18 10:25:25;;;;;;;9.13;5.13;;;;;;;;;;5079065;28;20401;-61
2021/12/18 10:27:57;;;;;;;11.95;5.78;;;;;;;;;;5078775;28;20032;-61
2021/12/18 10:30:22;;;;;;;14.80;6.68;;;;;;;;;;5075534;28;20471;-61
2021/12/18 10:32:54;;;;;;;8.70;5.03;;;;;;;;;;5075897;28;20093;-61
2021/12/18 10:35:20;;;;;;;12.05;6.70;;;;;;;;;;5075839;28;20039;-61
2021/12/18 10:37:45;;;;;;;15.18;6.65;;;;;;;;;;5074567;28;20017;-61
2021/12/18 10:40:11;;;;;;;9.10;4.97;;;;;;;;;;5074575;28;20474;-61
2021/12/18 10:42:45;;;;;;;13.27;6.88;;;;;;;;;;5075833;28;20036;-61
2021/12/18 10:45:16;;;;;;;11.15;6.63;;;;;;;;;;5074495;28;20047;-61
2021/12/18 10:47:46;;;;;;;9.15;6.03;;;;;;;;;;5075650;28;20040;-61
2021/12/18 10:50:18;;;;;;;10.95;6.00;;;;;;;;;;5074411;28;20071;-61
2021/12/18 10:52:44;;;;;;;8.05;5.55;;;;;;;;;;5074485;28;20124;-61
2021/12/18 10:55:09;;;;;;;9.38;4.82;;;;;;;;;;5074528;28;20115;-61
2021/12/18 10:57:35;;;;;;;7.65;5.43;;;;;;;;;;5075528;28;20045;-61
2021/12/18 11:00:02;;;;;;;10.18;5.75;;;;;;;;;;5075576;28;20112;-61
2021/12/18 11:02:28;;;;;;;8.65;4.57;;;;;;;;;;5075236;28;20036;-61
2021/12/18 11:05:11;;;;;;;8.43;4.38;;;;;;;;;;5075259;28;20375;-61
2021/12/18 11:07:42;;;;;;;8.20;4.93;;;;;;;;;;5075297;28;20059;-61
2021/12/18 11:10:38;;;;;;;6.43;4.75;;;;;;;;;;5075234;28;20040;-61
2021/12/18 11:15:48;;;;;;;10.95;5.90;;;;;;;;;;5075336;28;20044;-61
2021/12/18 11:18:14;;;;;;;6.03;4.63;;;;;;;;;;5057074;28;20063;-61
2021/12/18 11:20:40;;;;;;;8.23;5.25;;;;;;;;;;5074906;28;20116;-61
2021/12/18 11:23:05;;;;;;;12.63;5.45;;;;;;;;;;5073655;28;20039;-61
2021/12/18 11:25:31;;;;;;;8.65;4.50;;;;;;;;;;5074853;28;20040;-61
2021/12/18 11:27:56;;;;;;;8.63;4.93;;;;;;;;;;5074235;28;20186;-61
2021/12/18 11:30:22;;;;;;;9.07;5.18;;;;;;;;;;5073596;28;20458;-61
2021/12/18 11:32:54;;;;;;;11.23;5.15;;;;;;;;;;5074784;28;20380;-61
2021/12/18 11:35:20;;;;;;;7.32;5.10;;;;;;;;;;5074985;28;20082;-61
2021/12/18 11:37:51;;;;;;;8.85;4.53;;;;;;;;;;5073504;28;20441;-60
2021/12/18 11:40:23;;;;;;;8.15;5.35;;;;;;;;;;5074504;28;20086;-61
2021/12/18 11:42:49;;;;;;;6.88;4.43;;;;;;;;;;5074511;28;20033;-61
2021/12/18 11:45:14;;;;;;;6.25;3.83;;;;;;;;;;5074657;28;20039;-60
2021/12/18 11:47:41;;;;;;;5.45;4.07;;;;;;;;;;5074509;28;20086;-61
2021/12/18 11:50:06;;;;;;;6.22;3.67;;;;;;;;;;5074548;28;20047;-61
2021/12/18 11:52:50;;;;;;;6.22;4.35;;;;;;;;;;5074199;28;20119;-60
2021/12/18 11:55:15;;;;;;;6.63;4.45;;;;;;;;;;5072956;28;20127;-61
2021/12/18 11:57:45;;;;;;;8.02;4.28;;;;;;;;;;5074298;28;20115;-61
2021/12/18 12:00:22;;;;;;;6.28;4.05;;;;;;;;;;5073181;28;20041;-60
2021/12/18 12:02:48;;;;;;;7.65;4.28;;;;;;;;;;5074366;28;20051;-61
2021/12/18 12:05:14;;;;;;;8.02;4.30;;;;;;;;;;5074215;28;20378;-61
2021/12/18 12:07:40;;;;;;;5.97;4.55;;;;;;;;;;5072792;28;20093;-60
2021/12/18 12:10:07;;;;;;;7.00;4.10;;;;;;;;;;5074141;28;20032;-60
2021/12/18 12:12:51;;;;;;;7.97;5.05;;;;;;;;;;5056122;28;20048;-61
2021/12/18 12:15:16;;;;;;;6.07;4.97;;;;;;;;;;5074061;28;20390;-61
2021/12/18 12:17:56;;;;;;;6.43;4.82;;;;;;;;;;5073947;28;20020;-60
2021/12/18 12:20:32;;;;;;;9.57;5.85;;;;;;;;;;5073950;28;20037;-60
2021/12/18 12:23:00;;;;;;;6.63;4.72;;;;;;;;;;5073967;28;20379;-61
2021/12/18 12:25:39;;;;;;;7.28;5.05;;;;;;;;;;5073782;28;20028;-61
2021/12/18 12:28:07;;;;;;;9.00;5.15;;;;;;;;;;5072015;28;20079;-61
2021/12/18 12:30:32;;;;;;;9.35;5.22;;;;;;;;;;5072383;28;20037;-60
2021/12/18 12:33:00;;;;;;;11.35;7.05;;;;;;;;;;5073508;28;20532;-60
2021/12/18 12:35:26;;;;;;;9.70;5.78;;;;;;;;;;5055654;28;20037;-60
2021/12/18 12:37:52;;;;;;;10.32;7.15;;;;;;;;;;5073564;28;20029;-61
2021/12/18 12:40:21;;;;;;;9.82;6.25;;;;;;;;;;5073611;28;20044;-61
2021/12/18 12:43:05;;;;;;;13.30;6.65;;;;;;;;;;5073401;28;20425;-61
2021/12/18 12:45:35;;;;;;;8.45;5.95;;;;;;;;;;5073340;28;20032;-60
2021/12/18 12:48:01;;;;;;;10.35;7.25;;;;;;;;;;5072215;28;20055;-60
2021/12/18 12:50:27;;;;;;;8.85;6.28;;;;;;;;;;5073578;28;20394;-61
2021/12/18 12:52:55;;;;;;;10.30;6.20;;;;;;;;;;5072320;28;20040;-61
2021/12/18 12:55:21;;;;;;;9.40;6.25;;;;;;;;;;5055513;28;20031;-61
2021/12/18 12:57:50;;;;;;;12.07;7.57;;;;;;;;;;5073284;28;20028;-61
2021/12/18 13:00:18;;;;;;;11.40;6.80;;;;;;;;;;5071944;28;20458;-60
2021/12/18 13:02:52;;;;;;;9.82;7.28;;;;;;;;;;5073186;28;20040;-60
2021/12/18 13:05:19;;;;;;;10.85;7.50;;;;;;;;;;5073313;28;20127;-60
2021/12/18 13:08:10;;;;;;;11.85;7.82;;;;;;;;;;5073234;28;20500;-60
2021/12/18 13:10:37;;;;;;;12.40;6.95;;;;;;;;;;5069195;28;20036;-60
2021/12/18 13:13:05;;;;;;;10.27;7.97;;;;;;;;;;5073089;28;20112;-60
2021/12/18 13:15:49;;;;;;;11.63;7.88;;;;;;;;;;5071980;28;20033;-60
2021/12/18 13:18:15;;;;;;;11.35;7.97;;;;;;;;;;5073068;28;20031;-60
2021/12/18 13:20:45;;;;;;;14.18;7.97;;;;;;;;;;5073061;28;20024;-60
2021/12/18 13:23:17;;;;;;;11.75;7.32;;;;;;;;;;5073256;28;20127;-61
2021/12/18 13:25:51;;;;;;;12.48;8.77;;;;;;;;;;5073195;28;20052;-61
2021/12/18 13:28:17;;;;;;;13.43;8.02;;;;;;;;;;5071097;28;20542;-60
2021/12/18 13:30:47;;;;;;;11.75;7.55;;;;;;;;;;5073048;28;20036;-61
2021/12/18 13:33:12;;;;;;;12.32;9.15;;;;;;;;;;5071746;28;20079;-61
2021/12/18 13:35:38;;;;;;;12.90;8.32;;;;;;;;;;5072851;28;20036;-61
2021/12/18 13:38:03;;;;;;;10.52;7.63;;;;;;;;;;5073015;28;20033;-61
2021/12/18 13:40:30;;;;;;;12.70;9.43;;;;;;;;;;5072914;28;20482;-61
2021/12/18 13:43:14;;;;;;;13.45;8.25;;;;;;;;;;5072785;28;20161;-61
2021/12/18 13:45:54;;;;;;;10.30;7.80;;;;;;;;;;5072576;28;20075;-61
2021/12/18 13:48:21;;;;;;;10.68;7.07;;;;;;;;;;5071591;28;20451;-61
2021/12/18 13:50:59;;;;;;;11.00;7.85;;;;;;;;;;5072815;28;20463;-61
2021/12/18 13:53:25;;;;;;;15.13;8.70;;;;;;;;;;5072454;28;20037;-61
2021/12/18 13:55:55;;;;;;;11.77;7.70;;;;;;;;;;5072695;28;20021;-61
2021/12/18 13:58:21;;;;;;;;;;;;;;;;;;5073161;28;20044;-61
2021/12/18 14:00:51;;;;;;;11.02;8.10;;;;;;;;;;5072873;28;19987;-61
2021/12/18 14:03:30;;;;;;;10.95;7.57;;;;;;;;;;5071335;28;20037;-61
2021/12/18 14:05:58;;;;;;;12.25;8.05;;;;;;;;;;5076431;28;20504;-61
2021/12/18 14:08:24;;;;;;;11.90;8.30;;;;;;;;;;5075015;28;20386;-61
2021/12/18 14:10:50;;;;;;;15.75;9.82;;;;;;;;;;5076320;28;20036;-61
2021/12/18 14:13:15;;;;;;;14.35;9.10;;;;;;;;;;5075007;28;20025;-61
2021/12/18 14:15:42;;;;;;;11.88;7.68;;;;;;;;;;5076307;28;20037;-61
2021/12/18 14:18:26;;;;;;;13.35;7.95;;;;;;;;;;5074970;28;20138;-61
2021/12/18 14:20:51;;;;;;;15.60;10.43;;;;;;;;;;5074960;28;20036;-61
2021/12/18 14:23:17;;;;;;;12.43;7.70;;;;;;;;;;5075970;28;20043;-61
2021/12/18 14:25:42;;;;;;;13.80;9.45;;;;;;;;;;5075941;28;20051;-61
2021/12/18 14:28:17;;;;;;;12.07;8.80;;;;;;;;;;5074051;28;20033;-61
2021/12/18 14:30:44;;;;;;;12.10;8.50;;;;;;;;;;5075874;28;20093;-61
2021/12/18 14:33:10;;;;;;;12.55;7.95;;;;;;;;;;5075884;28;20132;-61
2021/12/18 14:35:56;;;;;;;12.45;8.02;;;;;;;;;;5075997;28;20037;-61
2021/12/18 14:38:23;;;;;;;12.13;8.27;;;;;;;;;;5075654;28;20483;-61
2021/12/18 14:41:04;;;;;;;12.65;7.80;;;;;;;;;;5075263;28;20025;-61
2021/12/18 14:43:29;;;;;;;;;;;;;;;;;;5076036;28;20076;-61
2021/12/18 14:45:54;;;;;;;12.63;8.07;;;;;;;;;;5074511;28;19932;-61
2021/12/18 14:48:30;;;;;;;10.90;7.85;;;;;;;;;;5075677;28;20271;-60
2021/12/18 14:50:55;;;;;;;11.45;7.55;;;;;;;;;;5074476;28;20046;-61
2021/12/18 14:53:22;;;;;;;13.23;8.43;;;;;;;;;;5075578;28;20035;-61
2021/12/18 14:55:48;;;;;;;13.02;7.22;;;;;;;;;;5075607;28;20044;-61
2021/12/18 14:58:17;;;;;;;10.95;7.72;;;;;;;;;;5057479;28;20081;-61
2021/12/18 15:00:48;;;;;;;11.50;8.02;;;;;;;;;;5075421;28;20043;-61
2021/12/18 15:03:25;;;;;;;13.88;8.15;;;;;;;;;;5074253;28;20036;-60
2021/12/18 15:05:55;;;;;;;12.82;8.38;;;;;;;;;;5075341;28;20045;-61
2021/12/18 15:08:31;;;;;;;13.55;8.60;;;;;;;;;;5075216;28;20037;-61
2021/12/18 15:10:58;;;;;;;11.73;8.60;;;;;;;;;;5074027;28;20045;-60
2021/12/18 15:13:25;;;;;;;10.05;7.70;;;;;;;;;;5073862;28;20083;-60
2021/12/18 15:16:09;;;;;;;13.35;8.07;;;;;;;;;;5073204;28;20185;-60
2021/12/18 15:18:35;;;;;;;12.20;8.43;;;;;;;;;;5073869;28;20470;-60
2021/12/18 15:21:00;;;;;;;11.85;8.80;;;;;;;;;;5073815;28;20024;-60
2021/12/18 15:23:26;;;;;;;12.82;8.52;;;;;;;;;;5074892;28;20032;-60
2021/12/18 15:25:53;;;;;;;11.30;8.35;;;;;;;;;;5075015;28;20032;-60
2021/12/18 15:28:19;;;;;;;10.45;7.10;;;;;;;;;;5074141;28;20410;-60
2021/12/18 15:30:45;;;;;;;13.13;8.73;;;;;;;;;;5073627;28;20504;-61
2021/12/18 15:33:10;;;;;;;18.50;11.05;;;;;;;;;;5074646;28;20103;-60